sensor_id;sensor_type;location;lat;lon;timestamp;pressure;altitude;pressure_sealevel;temperature
73937;BMP180;59249;59.736;30.568;2022-08-21T00:02:21;101821.00;;;17.90
73937;BMP180;59249;59.736;30.568;2022-08-21T00:04:52;101824.00;;;17.80
73937;BMP180;59249;59.736;30.568;2022-08-21T00:07:24;101824.00;;;17.80
73937;BMP180;59249;59.736;30.568;2022-08-21T00:09:54;101817.00;;;17.80
73937;BMP180;59249;59.736;30.568;2022-08-21T00:12:23;101815.00;;;17.80
73937;BMP180;59249;59.736;30.568;2022-08-21T00:14:52;101817.00;;;17.70
73937;BMP180;59249;59.736;30.568;2022-08-21T00:17:25;101813.00;;;17.80
73937;BMP180;59249;59.736;30.568;2022-08-21T00:19:54;101813.00;;;17.80
73937;BMP180;59249;59.736;30.568;2022-08-21T00:22:24;101819.00;;;17.80
73937;BMP180;59249;59.736;30.568;2022-08-21T00:24:55;101812.00;;;17.80
73937;BMP180;59249;59.736;30.568;2022-08-21T00:27:23;101817.00;;;17.90
73937;BMP180;59249;59.736;30.568;2022-08-21T00:29:52;101809.00;;;17.90
73937;BMP180;59249;59.736;30.568;2022-08-21T00:32:23;101811.00;;;17.90
73937;BMP180;59249;59.736;30.568;2022-08-21T00:34:55;101813.00;;;17.90
73937;BMP180;59249;59.736;30.568;2022-08-21T00:37:24;101804.00;;;17.80
73937;BMP180;59249;59.736;30.568;2022-08-21T00:39:56;101814.00;;;17.80
73937;BMP180;59249;59.736;30.568;2022-08-21T00:42:26;101808.00;;;17.80
73937;BMP180;59249;59.736;30.568;2022-08-21T00:44:57;101805.00;;;17.70
73937;BMP180;59249;59.736;30.568;2022-08-21T00:47:27;101806.00;;;17.70
73937;BMP180;59249;59.736;30.568;2022-08-21T00:49:56;101813.00;;;17.70
73937;BMP180;59249;59.736;30.568;2022-08-21T00:52:28;101805.00;;;17.60
73937;BMP180;59249;59.736;30.568;2022-08-21T00:55:00;101810.00;;;17.60
73937;BMP180;59249;59.736;30.568;2022-08-21T00:57:32;101802.00;;;17.50
73937;BMP180;59249;59.736;30.568;2022-08-21T01:00:12;101802.00;;;17.50
73937;BMP180;59249;59.736;30.568;2022-08-21T01:02:45;101806.00;;;17.40
73937;BMP180;59249;59.736;30.568;2022-08-21T01:05:15;101807.00;;;17.40
73937;BMP180;59249;59.736;30.568;2022-08-21T01:07:44;101806.00;;;17.30
73937;BMP180;59249;59.736;30.568;2022-08-21T01:10:14;101797.00;;;17.30
73937;BMP180;59249;59.736;30.568;2022-08-21T01:12:51;101797.00;;;17.20
73937;BMP180;59249;59.736;30.568;2022-08-21T01:15:23;101796.00;;;17.20
73937;BMP180;59249;59.736;30.568;2022-08-21T01:17:57;101791.00;;;17.10
73937;BMP180;59249;59.736;30.568;2022-08-21T01:20:27;101789.00;;;17.10
73937;BMP180;59249;59.736;30.568;2022-08-21T01:23:00;101786.00;;;17.00
73937;BMP180;59249;59.736;30.568;2022-08-21T01:25:31;101791.00;;;17.00
73937;BMP180;59249;59.736;30.568;2022-08-21T01:28:06;101797.00;;;16.90
73937;BMP180;59249;59.736;30.568;2022-08-21T01:30:42;101787.00;;;16.90
73937;BMP180;59249;59.736;30.568;2022-08-21T01:33:11;101786.00;;;16.90
73937;BMP180;59249;59.736;30.568;2022-08-21T01:35:40;101784.00;;;16.90
73937;BMP180;59249;59.736;30.568;2022-08-21T01:38:11;101780.00;;;16.90
73937;BMP180;59249;59.736;30.568;2022-08-21T01:40:39;101780.00;;;16.80
73937;BMP180;59249;59.736;30.568;2022-08-21T01:43:09;101779.00;;;16.80
73937;BMP180;59249;59.736;30.568;2022-08-21T01:45:37;101780.00;;;16.80
73937;BMP180;59249;59.736;30.568;2022-08-21T01:48:06;101770.00;;;16.80
73937;BMP180;59249;59.736;30.568;2022-08-21T01:50:35;101779.00;;;16.70
73937;BMP180;59249;59.736;30.568;2022-08-21T01:53:04;101780.00;;;16.60
73937;BMP180;59249;59.736;30.568;2022-08-21T01:55:34;101775.00;;;16.50
73937;BMP180;59249;59.736;30.568;2022-08-21T01:58:03;101774.00;;;16.60
73937;BMP180;59249;59.736;30.568;2022-08-21T02:00:32;101772.00;;;16.60
73937;BMP180;59249;59.736;30.568;2022-08-21T02:03:01;101771.00;;;16.60
73937;BMP180;59249;59.736;30.568;2022-08-21T02:05:30;101772.00;;;16.60
73937;BMP180;59249;59.736;30.568;2022-08-21T02:08:00;101776.00;;;16.50
73937;BMP180;59249;59.736;30.568;2022-08-21T02:10:31;101774.00;;;16.50
73937;BMP180;59249;59.736;30.568;2022-08-21T02:13:02;101775.00;;;16.50
73937;BMP180;59249;59.736;30.568;2022-08-21T02:15:31;101772.00;;;16.50
73937;BMP180;59249;59.736;30.568;2022-08-21T02:18:01;101767.00;;;16.50
73937;BMP180;59249;59.736;30.568;2022-08-21T02:20:32;101764.00;;;16.50
73937;BMP180;59249;59.736;30.568;2022-08-21T02:23:03;101763.00;;;16.40
73937;BMP180;59249;59.736;30.568;2022-08-21T02:25:33;101761.00;;;16.40
73937;BMP180;59249;59.736;30.568;2022-08-21T02:28:07;101765.00;;;16.40
73937;BMP180;59249;59.736;30.568;2022-08-21T02:30:41;101766.00;;;16.40
73937;BMP180;59249;59.736;30.568;2022-08-21T02:33:12;101767.00;;;16.40
73937;BMP180;59249;59.736;30.568;2022-08-21T02:35:44;101759.00;;;16.40
73937;BMP180;59249;59.736;30.568;2022-08-21T02:38:17;101762.00;;;16.40
73937;BMP180;59249;59.736;30.568;2022-08-21T02:40:49;101763.00;;;16.40
73937;BMP180;59249;59.736;30.568;2022-08-21T02:43:22;101759.00;;;16.30
73937;BMP180;59249;59.736;30.568;2022-08-21T02:45:52;101761.00;;;16.30
73937;BMP180;59249;59.736;30.568;2022-08-21T02:48:24;101765.00;;;16.30
73937;BMP180;59249;59.736;30.568;2022-08-21T02:50:57;101764.00;;;16.30
73937;BMP180;59249;59.736;30.568;2022-08-21T02:53:28;101768.00;;;16.40
73937;BMP180;59249;59.736;30.568;2022-08-21T02:56:00;101767.00;;;16.40
73937;BMP180;59249;59.736;30.568;2022-08-21T02:58:34;101763.00;;;16.30
73937;BMP180;59249;59.736;30.568;2022-08-21T03:01:06;101760.00;;;16.30
73937;BMP180;59249;59.736;30.568;2022-08-21T03:03:37;101772.00;;;16.20
73937;BMP180;59249;59.736;30.568;2022-08-21T03:06:09;101773.00;;;16.20
73937;BMP180;59249;59.736;30.568;2022-08-21T03:08:40;101772.00;;;16.30
73937;BMP180;59249;59.736;30.568;2022-08-21T03:11:12;101779.00;;;16.20
73937;BMP180;59249;59.736;30.568;2022-08-21T03:13:43;101776.00;;;16.20
73937;BMP180;59249;59.736;30.568;2022-08-21T03:16:12;101778.00;;;16.20
73937;BMP180;59249;59.736;30.568;2022-08-21T03:18:41;101772.00;;;16.30
73937;BMP180;59249;59.736;30.568;2022-08-21T03:21:10;101770.00;;;16.30
73937;BMP180;59249;59.736;30.568;2022-08-21T03:23:40;101773.00;;;16.30
73937;BMP180;59249;59.736;30.568;2022-08-21T03:26:10;101781.00;;;16.30
73937;BMP180;59249;59.736;30.568;2022-08-21T03:28:39;101771.00;;;16.30
73937;BMP180;59249;59.736;30.568;2022-08-21T03:31:10;101773.00;;;16.30
73937;BMP180;59249;59.736;30.568;2022-08-21T03:33:39;101772.00;;;16.40
73937;BMP180;59249;59.736;30.568;2022-08-21T03:36:09;101773.00;;;16.40
73937;BMP180;59249;59.736;30.568;2022-08-21T03:38:38;101762.00;;;16.50
73937;BMP180;59249;59.736;30.568;2022-08-21T03:41:08;101762.00;;;16.50
73937;BMP180;59249;59.736;30.568;2022-08-21T03:43:37;101754.00;;;16.50
73937;BMP180;59249;59.736;30.568;2022-08-21T03:46:06;101753.00;;;16.50
73937;BMP180;59249;59.736;30.568;2022-08-21T03:48:37;101757.00;;;16.60
73937;BMP180;59249;59.736;30.568;2022-08-21T03:51:07;101756.00;;;16.70
73937;BMP180;59249;59.736;30.568;2022-08-21T03:53:36;101757.00;;;16.70
73937;BMP180;59249;59.736;30.568;2022-08-21T03:56:05;101751.00;;;16.70
73937;BMP180;59249;59.736;30.568;2022-08-21T03:58:34;101748.00;;;16.80
73937;BMP180;59249;59.736;30.568;2022-08-21T04:01:05;101752.00;;;16.80
73937;BMP180;59249;59.736;30.568;2022-08-21T04:03:37;101754.00;;;16.60
73937;BMP180;59249;59.736;30.568;2022-08-21T04:06:06;101752.00;;;16.70
73937;BMP180;59249;59.736;30.568;2022-08-21T04:08:35;101757.00;;;16.70
73937;BMP180;59249;59.736;30.568;2022-08-21T04:11:05;101759.00;;;16.80
73937;BMP180;59249;59.736;30.568;2022-08-21T04:13:34;101759.00;;;16.90
73937;BMP180;59249;59.736;30.568;2022-08-21T04:16:10;101754.00;;;17.00
73937;BMP180;59249;59.736;30.568;2022-08-21T04:18:41;101759.00;;;17.00
73937;BMP180;59249;59.736;30.568;2022-08-21T04:21:11;101759.00;;;17.00
73937;BMP180;59249;59.736;30.568;2022-08-21T04:23:41;101755.00;;;17.00
73937;BMP180;59249;59.736;30.568;2022-08-21T04:26:09;101758.00;;;17.00
73937;BMP180;59249;59.736;30.568;2022-08-21T04:28:38;101759.00;;;17.00
73937;BMP180;59249;59.736;30.568;2022-08-21T04:31:07;101756.00;;;17.00
73937;BMP180;59249;59.736;30.568;2022-08-21T04:33:36;101756.00;;;17.10
73937;BMP180;59249;59.736;30.568;2022-08-21T04:36:07;101754.00;;;17.20
73937;BMP180;59249;59.736;30.568;2022-08-21T04:38:37;101757.00;;;17.10
73937;BMP180;59249;59.736;30.568;2022-08-21T04:41:10;101757.00;;;17.20
73937;BMP180;59249;59.736;30.568;2022-08-21T04:43:39;101755.00;;;17.30
73937;BMP180;59249;59.736;30.568;2022-08-21T04:46:09;101755.00;;;17.20
73937;BMP180;59249;59.736;30.568;2022-08-21T04:48:39;101757.00;;;17.20
73937;BMP180;59249;59.736;30.568;2022-08-21T04:51:13;101753.00;;;17.30
73937;BMP180;59249;59.736;30.568;2022-08-21T04:53:48;101756.00;;;17.30
73937;BMP180;59249;59.736;30.568;2022-08-21T04:56:22;101753.00;;;17.30
73937;BMP180;59249;59.736;30.568;2022-08-21T04:58:55;101753.00;;;17.30
73937;BMP180;59249;59.736;30.568;2022-08-21T05:01:32;101751.00;;;17.20
73937;BMP180;59249;59.736;30.568;2022-08-21T05:04:05;101746.00;;;17.30
73937;BMP180;59249;59.736;30.568;2022-08-21T05:06:41;101750.00;;;17.30
73937;BMP180;59249;59.736;30.568;2022-08-21T05:09:15;101744.00;;;17.30
73937;BMP180;59249;59.736;30.568;2022-08-21T05:11:46;101741.00;;;17.30
73937;BMP180;59249;59.736;30.568;2022-08-21T05:14:15;101750.00;;;17.30
73937;BMP180;59249;59.736;30.568;2022-08-21T05:16:44;101743.00;;;17.30
73937;BMP180;59249;59.736;30.568;2022-08-21T05:19:13;101752.00;;;17.30
73937;BMP180;59249;59.736;30.568;2022-08-21T05:21:45;101752.00;;;17.20
73937;BMP180;59249;59.736;30.568;2022-08-21T05:24:16;101750.00;;;17.30
73937;BMP180;59249;59.736;30.568;2022-08-21T05:26:45;101757.00;;;17.40
73937;BMP180;59249;59.736;30.568;2022-08-21T05:29:15;101758.00;;;17.40
73937;BMP180;59249;59.736;30.568;2022-08-21T05:31:45;101756.00;;;17.60
73937;BMP180;59249;59.736;30.568;2022-08-21T05:34:18;101756.00;;;17.60
73937;BMP180;59249;59.736;30.568;2022-08-21T05:36:49;101746.00;;;17.80
73937;BMP180;59249;59.736;30.568;2022-08-21T05:39:18;101738.00;;;17.80
73937;BMP180;59249;59.736;30.568;2022-08-21T05:41:47;101736.00;;;17.90
73937;BMP180;59249;59.736;30.568;2022-08-21T05:44:16;101737.00;;;18.00
73937;BMP180;59249;59.736;30.568;2022-08-21T05:46:46;101734.00;;;18.00
73937;BMP180;59249;59.736;30.568;2022-08-21T05:49:15;101740.00;;;18.10
73937;BMP180;59249;59.736;30.568;2022-08-21T05:51:44;101740.00;;;18.20
73937;BMP180;59249;59.736;30.568;2022-08-21T05:54:14;101741.00;;;18.20
73937;BMP180;59249;59.736;30.568;2022-08-21T05:56:43;101734.00;;;18.10
73937;BMP180;59249;59.736;30.568;2022-08-21T05:59:12;101730.00;;;18.10
73937;BMP180;59249;59.736;30.568;2022-08-21T06:01:41;101731.00;;;18.20
73937;BMP180;59249;59.736;30.568;2022-08-21T06:04:10;101721.00;;;18.40
73937;BMP180;59249;59.736;30.568;2022-08-21T06:06:39;101724.00;;;18.50
73937;BMP180;59249;59.736;30.568;2022-08-21T06:09:08;101714.00;;;18.70
73937;BMP180;59249;59.736;30.568;2022-08-21T06:11:39;101715.00;;;18.70
73937;BMP180;59249;59.736;30.568;2022-08-21T06:14:07;101717.00;;;18.70
73937;BMP180;59249;59.736;30.568;2022-08-21T06:16:36;101717.00;;;18.80
73937;BMP180;59249;59.736;30.568;2022-08-21T06:19:05;101714.00;;;18.80
73937;BMP180;59249;59.736;30.568;2022-08-21T06:21:34;101711.00;;;18.90
73937;BMP180;59249;59.736;30.568;2022-08-21T06:24:03;101703.00;;;19.10
73937;BMP180;59249;59.736;30.568;2022-08-21T06:26:33;101712.00;;;19.30
73937;BMP180;59249;59.736;30.568;2022-08-21T06:29:04;101711.00;;;19.30
73937;BMP180;59249;59.736;30.568;2022-08-21T06:31:33;101714.00;;;19.10
73937;BMP180;59249;59.736;30.568;2022-08-21T06:34:03;101706.00;;;19.20
73937;BMP180;59249;59.736;30.568;2022-08-21T06:36:32;101704.00;;;19.40
73937;BMP180;59249;59.736;30.568;2022-08-21T06:39:01;101710.00;;;19.50
73937;BMP180;59249;59.736;30.568;2022-08-21T06:41:50;101708.00;;;19.50
73937;BMP180;59249;59.736;30.568;2022-08-21T06:44:28;101703.00;;;19.30
73937;BMP180;59249;59.736;30.568;2022-08-21T06:46:58;101699.00;;;19.50
73937;BMP180;59249;59.736;30.568;2022-08-21T06:49:27;101699.00;;;19.30
73937;BMP180;59249;59.736;30.568;2022-08-21T06:51:56;101703.00;;;19.40
73937;BMP180;59249;59.736;30.568;2022-08-21T06:54:25;101693.00;;;19.40
73937;BMP180;59249;59.736;30.568;2022-08-21T06:56:54;101696.00;;;19.30
73937;BMP180;59249;59.736;30.568;2022-08-21T06:59:22;101691.00;;;19.20
73937;BMP180;59249;59.736;30.568;2022-08-21T07:01:52;101694.00;;;19.20
73937;BMP180;59249;59.736;30.568;2022-08-21T07:04:21;101689.00;;;19.40
73937;BMP180;59249;59.736;30.568;2022-08-21T07:06:50;101688.00;;;19.40
73937;BMP180;59249;59.736;30.568;2022-08-21T07:09:19;101681.00;;;19.50
73937;BMP180;59249;59.736;30.568;2022-08-21T07:11:53;101683.00;;;19.40
73937;BMP180;59249;59.736;30.568;2022-08-21T07:14:25;101680.00;;;19.50
73937;BMP180;59249;59.736;30.568;2022-08-21T07:16:55;101673.00;;;19.40
73937;BMP180;59249;59.736;30.568;2022-08-21T07:19:24;101675.00;;;19.50
73937;BMP180;59249;59.736;30.568;2022-08-21T07:21:56;101672.00;;;19.60
73937;BMP180;59249;59.736;30.568;2022-08-21T07:24:28;101675.00;;;19.70
73937;BMP180;59249;59.736;30.568;2022-08-21T07:26:57;101669.00;;;19.90
73937;BMP180;59249;59.736;30.568;2022-08-21T07:29:25;101672.00;;;19.90
73937;BMP180;59249;59.736;30.568;2022-08-21T07:31:56;101670.00;;;20.10
73937;BMP180;59249;59.736;30.568;2022-08-21T07:34:25;101669.00;;;20.20
73937;BMP180;59249;59.736;30.568;2022-08-21T07:36:54;101664.00;;;20.20
73937;BMP180;59249;59.736;30.568;2022-08-21T07:39:24;101652.00;;;20.10
73937;BMP180;59249;59.736;30.568;2022-08-21T07:41:53;101656.00;;;20.10
73937;BMP180;59249;59.736;30.568;2022-08-21T07:44:22;101650.00;;;20.00
73937;BMP180;59249;59.736;30.568;2022-08-21T07:46:50;101648.00;;;20.00
73937;BMP180;59249;59.736;30.568;2022-08-21T07:49:21;101651.00;;;20.10
73937;BMP180;59249;59.736;30.568;2022-08-21T07:51:50;101659.00;;;20.20
73937;BMP180;59249;59.736;30.568;2022-08-21T07:54:18;101650.00;;;20.30
73937;BMP180;59249;59.736;30.568;2022-08-21T07:56:59;101652.00;;;20.50
73937;BMP180;59249;59.736;30.568;2022-08-21T07:59:28;101651.00;;;20.50
73937;BMP180;59249;59.736;30.568;2022-08-21T08:01:57;101646.00;;;20.70
73937;BMP180;59249;59.736;30.568;2022-08-21T08:04:27;101647.00;;;20.70
73937;BMP180;59249;59.736;30.568;2022-08-21T08:06:56;101640.00;;;20.80
73937;BMP180;59249;59.736;30.568;2022-08-21T08:09:25;101648.00;;;20.80
73937;BMP180;59249;59.736;30.568;2022-08-21T08:11:54;101646.00;;;20.80
73937;BMP180;59249;59.736;30.568;2022-08-21T08:14:23;101648.00;;;21.00
73937;BMP180;59249;59.736;30.568;2022-08-21T08:16:57;101644.00;;;20.90
73937;BMP180;59249;59.736;30.568;2022-08-21T08:19:27;101635.00;;;20.80
73937;BMP180;59249;59.736;30.568;2022-08-21T08:21:56;101642.00;;;20.80
73937;BMP180;59249;59.736;30.568;2022-08-21T08:24:25;101648.00;;;20.90
73937;BMP180;59249;59.736;30.568;2022-08-21T08:26:53;101632.00;;;20.70
73937;BMP180;59249;59.736;30.568;2022-08-21T08:29:23;101630.00;;;20.60
73937;BMP180;59249;59.736;30.568;2022-08-21T08:31:53;101622.00;;;20.60
73937;BMP180;59249;59.736;30.568;2022-08-21T08:34:22;101617.00;;;20.70
73937;BMP180;59249;59.736;30.568;2022-08-21T08:36:53;101622.00;;;20.60
73937;BMP180;59249;59.736;30.568;2022-08-21T08:39:24;101622.00;;;20.70
73937;BMP180;59249;59.736;30.568;2022-08-21T08:42:01;101619.00;;;20.80
73937;BMP180;59249;59.736;30.568;2022-08-21T08:44:57;101622.00;;;20.80
73937;BMP180;59249;59.736;30.568;2022-08-21T08:47:31;101618.00;;;21.00
73937;BMP180;59249;59.736;30.568;2022-08-21T08:50:06;101622.00;;;21.10
73937;BMP180;59249;59.736;30.568;2022-08-21T08:52:44;101619.00;;;21.20
73937;BMP180;59249;59.736;30.568;2022-08-21T08:55:19;101619.00;;;21.10
73937;BMP180;59249;59.736;30.568;2022-08-21T08:57:54;101626.00;;;21.10
73937;BMP180;59249;59.736;30.568;2022-08-21T09:00:24;101616.00;;;21.30
73937;BMP180;59249;59.736;30.568;2022-08-21T09:02:56;101609.00;;;21.10
73937;BMP180;59249;59.736;30.568;2022-08-21T09:05:30;101613.00;;;21.20
73937;BMP180;59249;59.736;30.568;2022-08-21T09:08:21;101619.00;;;21.30
73937;BMP180;59249;59.736;30.568;2022-08-21T09:11:11;101603.00;;;21.30
73937;BMP180;59249;59.736;30.568;2022-08-21T09:13:50;101618.00;;;21.10
73937;BMP180;59249;59.736;30.568;2022-08-21T09:16:39;101606.00;;;21.10
73937;BMP180;59249;59.736;30.568;2022-08-21T09:19:27;101606.00;;;21.10
73937;BMP180;59249;59.736;30.568;2022-08-21T09:22:12;101598.00;;;21.10
73937;BMP180;59249;59.736;30.568;2022-08-21T09:24:55;101601.00;;;20.90
73937;BMP180;59249;59.736;30.568;2022-08-21T09:27:44;101595.00;;;20.90
73937;BMP180;59249;59.736;30.568;2022-08-21T09:30:16;101594.00;;;21.00
73937;BMP180;59249;59.736;30.568;2022-08-21T09:32:52;101590.00;;;21.30
73937;BMP180;59249;59.736;30.568;2022-08-21T09:35:21;101586.00;;;21.30
73937;BMP180;59249;59.736;30.568;2022-08-21T09:37:54;101588.00;;;21.10
73937;BMP180;59249;59.736;30.568;2022-08-21T09:40:35;101577.00;;;21.40
73937;BMP180;59249;59.736;30.568;2022-08-21T09:43:21;101574.00;;;21.60
73937;BMP180;59249;59.736;30.568;2022-08-21T09:46:06;101575.00;;;21.80
73937;BMP180;59249;59.736;30.568;2022-08-21T09:48:43;101580.00;;;22.20
73937;BMP180;59249;59.736;30.568;2022-08-21T09:51:16;101572.00;;;22.10
73937;BMP180;59249;59.736;30.568;2022-08-21T09:53:49;101571.00;;;22.20
73937;BMP180;59249;59.736;30.568;2022-08-21T09:56:30;101572.00;;;22.40
73937;BMP180;59249;59.736;30.568;2022-08-21T09:59:25;101577.00;;;22.40
73937;BMP180;59249;59.736;30.568;2022-08-21T10:02:22;101549.00;;;22.10
73937;BMP180;59249;59.736;30.568;2022-08-21T10:04:55;101560.00;;;22.30
73937;BMP180;59249;59.736;30.568;2022-08-21T10:07:29;101563.00;;;22.50
73937;BMP180;59249;59.736;30.568;2022-08-21T10:10:02;101553.00;;;22.80
73937;BMP180;59249;59.736;30.568;2022-08-21T10:12:57;101545.00;;;22.80
73937;BMP180;59249;59.736;30.568;2022-08-21T10:15:39;101554.00;;;22.90
73937;BMP180;59249;59.736;30.568;2022-08-21T10:18:21;101550.00;;;22.80
73937;BMP180;59249;59.736;30.568;2022-08-21T10:21:00;101557.00;;;22.80
73937;BMP180;59249;59.736;30.568;2022-08-21T10:23:47;101558.00;;;22.80
73937;BMP180;59249;59.736;30.568;2022-08-21T10:26:36;101564.00;;;23.10
73937;BMP180;59249;59.736;30.568;2022-08-21T10:29:39;101555.00;;;22.90
73937;BMP180;59249;59.736;30.568;2022-08-21T10:32:27;101555.00;;;23.20
73937;BMP180;59249;59.736;30.568;2022-08-21T10:35:13;101557.00;;;23.10
73937;BMP180;59249;59.736;30.568;2022-08-21T10:37:55;101557.00;;;23.30
73937;BMP180;59249;59.736;30.568;2022-08-21T10:41:03;101566.00;;;23.40
73937;BMP180;59249;59.736;30.568;2022-08-21T10:43:45;101559.00;;;23.60
73937;BMP180;59249;59.736;30.568;2022-08-21T10:46:32;101565.00;;;23.60
73937;BMP180;59249;59.736;30.568;2022-08-21T10:49:18;101557.00;;;23.60
73937;BMP180;59249;59.736;30.568;2022-08-21T10:52:01;101555.00;;;23.20
73937;BMP180;59249;59.736;30.568;2022-08-21T10:54:44;101552.00;;;23.20
73937;BMP180;59249;59.736;30.568;2022-08-21T10:57:25;101559.00;;;23.10
73937;BMP180;59249;59.736;30.568;2022-08-21T11:00:05;101562.00;;;23.10
73937;BMP180;59249;59.736;30.568;2022-08-21T11:02:41;101554.00;;;23.00
73937;BMP180;59249;59.736;30.568;2022-08-21T11:05:17;101554.00;;;22.80
73937;BMP180;59249;59.736;30.568;2022-08-21T11:07:54;101553.00;;;22.80
73937;BMP180;59249;59.736;30.568;2022-08-21T11:10:34;101555.00;;;22.80
73937;BMP180;59249;59.736;30.568;2022-08-21T11:13:29;101547.00;;;22.90
73937;BMP180;59249;59.736;30.568;2022-08-21T11:16:09;101551.00;;;23.00
73937;BMP180;59249;59.736;30.568;2022-08-21T11:18:50;101547.00;;;23.20
73937;BMP180;59249;59.736;30.568;2022-08-21T11:21:30;101555.00;;;23.00
73937;BMP180;59249;59.736;30.568;2022-08-21T11:24:16;101560.00;;;23.10
73937;BMP180;59249;59.736;30.568;2022-08-21T11:26:59;101550.00;;;22.80
73937;BMP180;59249;59.736;30.568;2022-08-21T11:29:35;101553.00;;;23.00
73937;BMP180;59249;59.736;30.568;2022-08-21T11:32:24;101551.00;;;23.00
73937;BMP180;59249;59.736;30.568;2022-08-21T11:35:20;101543.00;;;23.20
73937;BMP180;59249;59.736;30.568;2022-08-21T11:38:16;101544.00;;;23.40
73937;BMP180;59249;59.736;30.568;2022-08-21T11:41:03;101542.00;;;23.50
73937;BMP180;59249;59.736;30.568;2022-08-21T11:43:43;101541.00;;;23.60
73937;BMP180;59249;59.736;30.568;2022-08-21T11:46:25;101540.00;;;23.60
73937;BMP180;59249;59.736;30.568;2022-08-21T11:49:07;101545.00;;;23.50
73937;BMP180;59249;59.736;30.568;2022-08-21T11:52:13;101537.00;;;23.20
73937;BMP180;59249;59.736;30.568;2022-08-21T11:54:52;101540.00;;;23.30
73937;BMP180;59249;59.736;30.568;2022-08-21T11:57:30;101545.00;;;23.30
73937;BMP180;59249;59.736;30.568;2022-08-21T12:00:05;101540.00;;;23.40
73937;BMP180;59249;59.736;30.568;2022-08-21T12:02:43;101538.00;;;23.50
73937;BMP180;59249;59.736;30.568;2022-08-21T12:05:26;101534.00;;;23.50
73937;BMP180;59249;59.736;30.568;2022-08-21T12:08:06;101539.00;;;23.50
73937;BMP180;59249;59.736;30.568;2022-08-21T12:10:41;101536.00;;;23.60
73937;BMP180;59249;59.736;30.568;2022-08-21T12:13:25;101539.00;;;23.50
73937;BMP180;59249;59.736;30.568;2022-08-21T12:16:10;101534.00;;;23.70
73937;BMP180;59249;59.736;30.568;2022-08-21T12:18:42;101535.00;;;23.80
73937;BMP180;59249;59.736;30.568;2022-08-21T12:21:22;101540.00;;;23.80
73937;BMP180;59249;59.736;30.568;2022-08-21T12:24:15;101532.00;;;23.80
73937;BMP180;59249;59.736;30.568;2022-08-21T12:26:51;101533.00;;;24.00
73937;BMP180;59249;59.736;30.568;2022-08-21T12:29:23;101522.00;;;24.00
73937;BMP180;59249;59.736;30.568;2022-08-21T12:31:59;101524.00;;;24.20
73937;BMP180;59249;59.736;30.568;2022-08-21T12:34:35;101523.00;;;24.10
73937;BMP180;59249;59.736;30.568;2022-08-21T12:37:14;101521.00;;;24.20
73937;BMP180;59249;59.736;30.568;2022-08-21T12:39:52;101516.00;;;24.20
73937;BMP180;59249;59.736;30.568;2022-08-21T12:42:33;101522.00;;;24.30
73937;BMP180;59249;59.736;30.568;2022-08-21T12:45:15;101525.00;;;24.40
73937;BMP180;59249;59.736;30.568;2022-08-21T12:47:50;101529.00;;;24.50
73937;BMP180;59249;59.736;30.568;2022-08-21T12:50:31;101527.00;;;24.40
73937;BMP180;59249;59.736;30.568;2022-08-21T12:53:09;101524.00;;;24.40
73937;BMP180;59249;59.736;30.568;2022-08-21T12:55:48;101528.00;;;24.50
73937;BMP180;59249;59.736;30.568;2022-08-21T12:58:19;101524.00;;;24.60
73937;BMP180;59249;59.736;30.568;2022-08-21T13:00:50;101525.00;;;24.90
73937;BMP180;59249;59.736;30.568;2022-08-21T13:03:26;101524.00;;;25.20
73937;BMP180;59249;59.736;30.568;2022-08-21T13:05:55;101516.00;;;25.40
73937;BMP180;59249;59.736;30.568;2022-08-21T13:08:27;101519.00;;;25.60
73937;BMP180;59249;59.736;30.568;2022-08-21T13:11:02;101511.00;;;25.60
73937;BMP180;59249;59.736;30.568;2022-08-21T13:13:42;101513.00;;;25.50
73937;BMP180;59249;59.736;30.568;2022-08-21T13:16:22;101496.00;;;25.40
73937;BMP180;59249;59.736;30.568;2022-08-21T13:18:59;101498.00;;;25.40
73937;BMP180;59249;59.736;30.568;2022-08-21T13:21:31;101499.00;;;25.50
73937;BMP180;59249;59.736;30.568;2022-08-21T13:24:16;101494.00;;;25.70
73937;BMP180;59249;59.736;30.568;2022-08-21T13:27:19;101500.00;;;25.70
73937;BMP180;59249;59.736;30.568;2022-08-21T13:30:08;101504.00;;;25.90
73937;BMP180;59249;59.736;30.568;2022-08-21T13:32:42;101493.00;;;26.10
73937;BMP180;59249;59.736;30.568;2022-08-21T13:35:19;101495.00;;;26.30
73937;BMP180;59249;59.736;30.568;2022-08-21T13:37:51;101490.00;;;26.30
73937;BMP180;59249;59.736;30.568;2022-08-21T13:40:25;101492.00;;;26.50
73937;BMP180;59249;59.736;30.568;2022-08-21T13:43:00;101493.00;;;26.70
73937;BMP180;59249;59.736;30.568;2022-08-21T13:45:32;101492.00;;;26.70
73937;BMP180;59249;59.736;30.568;2022-08-21T13:48:01;101488.00;;;26.70
73937;BMP180;59249;59.736;30.568;2022-08-21T13:50:34;101494.00;;;26.70
73937;BMP180;59249;59.736;30.568;2022-08-21T13:53:18;101494.00;;;26.80
73937;BMP180;59249;59.736;30.568;2022-08-21T13:55:50;101490.00;;;26.80
73937;BMP180;59249;59.736;30.568;2022-08-21T13:58:29;101497.00;;;26.80
73937;BMP180;59249;59.736;30.568;2022-08-21T14:01:01;101492.00;;;26.90
73937;BMP180;59249;59.736;30.568;2022-08-21T14:03:36;101485.00;;;26.80
73937;BMP180;59249;59.736;30.568;2022-08-21T14:06:15;101482.00;;;26.40
73937;BMP180;59249;59.736;30.568;2022-08-21T14:08:50;101492.00;;;26.40
73937;BMP180;59249;59.736;30.568;2022-08-21T14:11:22;101492.00;;;26.30
73937;BMP180;59249;59.736;30.568;2022-08-21T14:14:00;101496.00;;;26.30
73937;BMP180;59249;59.736;30.568;2022-08-21T14:16:47;101491.00;;;26.30
73937;BMP180;59249;59.736;30.568;2022-08-21T14:19:25;101487.00;;;26.30
73937;BMP180;59249;59.736;30.568;2022-08-21T14:21:56;101493.00;;;26.50
73937;BMP180;59249;59.736;30.568;2022-08-21T14:24:27;101497.00;;;26.50